Time;durP1;ratioP1;P1;durP2;ratioP2;P2;SDS_P1;SDS_P2;PMS_P1;PMS_P2;Temp;Humidity;BMP_temperature;BMP_pressure;BME280_temperature;BME280_humidity;BME280_pressure;Samples;Min_cycle;Max_cycle;Signal;HPM_P1;HPM_P2
2022/03/16 00:01:18;;;;;;;14.70;8.15;;;9.50;30.30;;;;;;6190057;23;20064;-79
2022/03/16 00:16:52;;;;;;;15.02;8.05;;;9.30;30.80;;;;;;6138702;23;20006;-79
2022/03/16 00:19:18;;;;;;;15.30;7.78;;;9.30;30.80;;;;;;6127806;23;20009;-79
2022/03/16 00:21:43;;;;;;;;;;;9.30;31.10;;;;;;6152943;23;19990;-80
2022/03/16 00:24:09;;;;;;;19.60;8.50;;;9.30;30.70;;;;;;6153360;23;19901;-80
2022/03/16 00:26:35;;;;;;;;;;;9.30;30.70;;;;;;6153265;23;19987;-80
2022/03/16 00:29:01;;;;;;;20.30;8.85;;;9.30;30.80;;;;;;6126657;23;20046;-79
2022/03/16 00:31:29;;;;;;;14.10;7.82;;;9.40;30.50;;;;;;6153604;23;20006;-79
2022/03/16 00:33:55;;;;;;;16.30;7.40;;;9.40;30.40;;;;;;6153528;23;20006;-80
2022/03/16 00:36:21;;;;;;;17.50;8.95;;;9.30;30.30;;;;;;6153918;23;19989;-80
2022/03/16 00:38:48;;;;;;;15.88;8.27;;;9.30;30.10;;;;;;6153746;23;19998;-80
2022/03/16 00:41:15;;;;;;;18.77;7.43;;;9.40;30.10;;;;;;6128645;23;20010;-80
2022/03/16 00:43:42;;;;;;;18.05;8.50;;;9.50;29.90;;;;;;6128475;23;20017;-79
2022/03/16 00:46:08;;;;;;;12.85;7.35;;;9.40;29.90;;;;;;6153596;23;20013;-80
2022/03/16 00:48:34;;;;;;;19.33;10.20;;;9.40;29.80;;;;;;6153558;23;20002;-80
2022/03/16 00:51:00;;;;;;;16.77;7.70;;;9.40;29.80;;;;;;6154521;23;20029;-80
2022/03/16 00:53:26;;;;;;;12.63;7.53;;;9.50;29.70;;;;;;6153984;23;20006;-80
2022/03/16 00:55:52;;;;;;;15.88;8.63;;;9.40;29.80;;;;;;6129918;23;20014;-79
2022/03/16 00:58:18;;;;;;;;;;;9.60;29.90;;;;;;6156540;23;19994;-79
2022/03/16 01:00:44;;;;;;;13.77;7.78;;;9.40;29.60;;;;;;6155400;23;19924;-79
2022/03/16 01:03:09;;;;;;;16.00;7.80;;;9.40;29.80;;;;;;6154841;23;19997;-79
2022/03/16 01:45:17;;;;;;;18.02;8.10;;;8.90;35.60;;;;;;6146454;23;20032;-79
2022/03/16 01:47:43;;;;;;;14.48;8.23;;;8.80;35.80;;;;;;6149811;23;19986;-79
2022/03/16 01:50:09;;;;;;;24.58;8.48;;;8.70;35.70;;;;;;6149708;23;20002;-80
2022/03/16 01:52:36;;;;;;;18.48;8.63;;;8.70;35.90;;;;;;6151098;23;20009;-80
2022/03/16 01:55:05;;;;;;;26.95;8.93;;;8.70;36.70;;;;;;6151677;23;20071;-79
2022/03/16 01:57:33;;;;;;;19.23;8.80;;;8.60;37.70;;;;;;6126255;23;20041;-80
2022/03/16 02:00:01;;;;;;;17.48;8.27;;;8.50;38.50;;;;;;6152084;23;20009;-82
2022/03/16 02:02:27;;;;;;;17.63;8.77;;;8.50;38.70;;;;;;6151337;23;19994;-80
2022/03/16 02:04:53;;;;;;;20.73;8.93;;;8.40;39.50;;;;;;6150976;23;20021;-80
2022/03/16 02:07:18;;;;;;;;;;;8.40;40.80;;;;;;6152757;23;19982;-79
2022/03/16 02:09:44;;;;;;;23.98;9.45;;;8.30;42.40;;;;;;6151269;23;19960;-79
2022/03/16 02:12:13;;;;;;;14.88;9.02;;;8.20;43.10;;;;;;6123087;23;20021;-80
2022/03/16 02:14:40;;;;;;;15.05;8.93;;;8.20;44.00;;;;;;6148728;23;19992;-79
2022/03/16 02:17:06;;;;;;;18.75;9.23;;;8.10;45.60;;;;;;6148796;23;20037;-79
2022/03/16 02:19:32;;;;;;;17.50;10.38;;;8.00;46.70;;;;;;6149334;23;20010;-79
2022/03/16 02:22:02;;;;;;;21.70;11.43;;;7.90;48.90;;;;;;6149407;23;20034;-79
2022/03/16 02:24:31;;;;;;;22.83;10.57;;;7.90;49.70;;;;;;6123847;23;20058;-79
2022/03/16 02:26:57;;;;;;;19.10;10.00;;;7.80;50.40;;;;;;6149606;23;20025;-80
2022/03/16 02:29:23;;;;;;;21.13;10.52;;;7.70;51.30;;;;;;6124240;23;20017;-79
2022/03/16 02:31:49;;;;;;;;;;;7.70;54.30;;;;;;6123440;23;20002;-79
2022/03/16 02:34:15;;;;;;;21.40;10.73;;;7.60;54.40;;;;;;6148982;23;19911;-79
2022/03/16 02:36:41;;;;;;;21.50;11.02;;;7.50;53.20;;;;;;6147886;23;20021;-79
2022/03/16 02:39:07;;;;;;;22.95;11.07;;;7.50;55.50;;;;;;6119702;23;20010;-80
2022/03/16 02:41:33;;;;;;;18.42;11.05;;;7.40;57.30;;;;;;6149068;23;19982;-79
2022/03/16 02:43:58;;;;;;;;;;;7.30;60.20;;;;;;6154613;23;20002;-80
2022/03/16 02:46:24;;;;;;;22.20;12.05;;;7.20;62.20;;;;;;6151123;23;19913;-79
2022/03/16 02:48:50;;;;;;;28.83;15.65;;;7.20;70.70;;;;;;6151439;23;20010;-79
2022/03/16 02:51:16;;;;;;;29.50;14.90;;;7.10;77.20;;;;;;6126492;23;20014;-77
2022/03/16 02:53:42;;;;;;;33.67;21.50;;;6.90;85.20;;;;;;6127313;23;20006;-79
2022/03/16 02:56:08;;;;;;;25.77;16.45;;;6.70;92.70;;;;;;6152553;23;20022;-79
2022/03/16 02:58:34;;;;;;;24.65;14.85;;;6.70;95.90;;;;;;6152945;23;19998;-80
2022/03/16 03:01:00;;;;;;;31.20;19.02;;;6.60;97.60;;;;;;6128262;23;19990;-80
2022/03/16 03:03:26;;;;;;;37.95;21.45;;;6.50;99.90;;;;;;6127556;23;20010;-79
2022/03/16 03:05:52;;;;;;;60.45;22.98;;;6.50;99.90;;;;;;6151991;23;20008;-79
2022/03/16 03:08:18;;;;;;;34.88;16.58;;;6.50;99.90;;;;;;6126673;23;20021;-80
2022/03/16 03:10:44;;;;;;;25.40;14.38;;;6.30;99.90;;;;;;6126949;23;20009;-79
2022/03/16 03:13:11;;;;;;;27.83;13.10;;;6.10;99.90;;;;;;6151973;23;19998;-80
2022/03/16 03:15:38;;;;;;;27.42;14.35;;;6.20;99.90;;;;;;6126540;23;20051;-80
2022/03/16 03:18:04;;;;;;;25.15;14.40;;;6.00;99.90;;;;;;6152145;23;19982;-78
2022/03/16 03:20:32;;;;;;;22.50;13.60;;;5.90;99.90;;;;;;6151671;23;20013;-79
2022/03/16 03:22:58;;;;;;;22.63;14.40;;;5.80;99.90;;;;;;6126787;23;20006;-78
2022/03/16 03:25:24;;;;;;;25.00;14.05;;;5.70;99.90;;;;;;6151893;23;20029;-79
2022/03/16 03:27:50;;;;;;;28.10;14.25;;;5.60;99.90;;;;;;6151784;23;20033;-78
2022/03/16 03:30:16;;;;;;;24.80;15.27;;;5.50;99.90;;;;;;6151118;23;20034;-79
2022/03/16 03:32:42;;;;;;;31.55;13.82;;;5.40;99.90;;;;;;6152219;23;20009;-80
2022/03/16 03:35:08;;;;;;;26.52;14.05;;;5.50;99.90;;;;;;6128244;23;20029;-80
2022/03/16 03:37:36;;;;;;;26.65;15.35;;;5.50;99.90;;;;;;6152912;23;20018;-79
2022/03/16 03:40:05;;;;;;;22.77;13.18;;;5.50;99.90;;;;;;6154081;23;20010;-80
2022/03/16 03:42:31;;;;;;;26.08;14.35;;;5.40;99.90;;;;;;6153153;23;20006;-78
2022/03/16 03:44:58;;;;;;;26.42;14.05;;;5.40;99.90;;;;;;6128244;23;20033;-80
2022/03/16 03:47:24;;;;;;;28.65;14.77;;;5.40;99.90;;;;;;6129636;23;20053;-79
2022/03/16 03:49:50;;;;;;;24.27;13.82;;;5.30;99.90;;;;;;6128037;23;20029;-80
2022/03/16 03:52:15;;;;;;;23.23;13.93;;;5.30;99.90;;;;;;6152966;23;20030;-79
2022/03/16 03:54:41;;;;;;;;;;;5.20;99.90;;;;;;6152611;23;20017;-78
2022/03/16 03:57:08;;;;;;;26.17;12.90;;;5.30;99.90;;;;;;6152568;23;19889;-80
2022/03/16 03:59:34;;;;;;;23.45;13.63;;;5.20;99.90;;;;;;6155476;23;20032;-81
2022/03/16 04:02:00;;;;;;;23.20;13.77;;;5.20;99.90;;;;;;6129702;23;20050;-81
2022/03/16 04:19:58;;;;;;;22.88;12.30;;;5.20;99.90;;;;;;6162773;23;20034;-80
2022/03/16 04:22:28;;;;;;;24.50;12.65;;;5.20;99.90;;;;;;6183913;23;20083;-80
2022/03/16 04:24:57;;;;;;;27.42;13.15;;;5.20;99.90;;;;;;6185349;23;20032;-81
2022/03/16 04:27:23;;;;;;;23.35;13.27;;;5.20;99.90;;;;;;6184298;23;20008;-81
2022/03/16 04:29:49;;;;;;;26.85;12.57;;;5.10;99.90;;;;;;6211240;23;20012;-79
2022/03/16 04:32:15;;;;;;;24.33;14.23;;;5.10;99.90;;;;;;6210211;23;19989;-79
2022/03/16 04:34:41;;;;;;;23.33;12.57;;;5.10;99.90;;;;;;6211404;23;20001;-80
2022/03/16 04:37:07;;;;;;;;;;;4.90;99.90;;;;;;6184989;23;19986;-80
2022/03/16 04:39:32;;;;;;;29.10;13.88;;;4.90;99.90;;;;;;6183749;23;19884;-80
2022/03/16 04:41:58;;;;;;;;;;;4.90;99.90;;;;;;6192435;23;20016;-78
2022/03/16 04:44:24;;;;;;;26.48;13.68;;;4.70;99.90;;;;;;6191565;23;19911;-79
2022/03/16 04:46:50;;;;;;;26.00;13.90;;;4.80;99.90;;;;;;6192476;23;20449;-78
2022/03/16 04:49:16;;;;;;;22.08;12.80;;;4.80;99.90;;;;;;6195064;23;20044;-81
2022/03/16 04:51:41;;;;;;;;;;;4.80;99.90;;;;;;6211088;23;20005;-79
2022/03/16 04:54:10;;;;;;;22.85;13.57;;;4.80;99.90;;;;;;6212046;23;19905;-81
2022/03/16 04:56:36;;;;;;;24.92;13.88;;;4.80;99.90;;;;;;6213144;23;19989;-81
2022/03/16 04:59:03;;;;;;;22.73;13.38;;;4.80;99.90;;;;;;6212878;23;20046;-81
2022/03/16 05:01:30;;;;;;;28.48;14.40;;;4.80;99.90;;;;;;6187189;23;20017;-80
2022/03/16 05:03:56;;;;;;;27.45;14.13;;;4.80;99.90;;;;;;6206832;23;20005;-79
2022/03/16 05:06:21;;;;;;;27.60;13.88;;;4.80;99.90;;;;;;6194082;23;20020;-79
2022/03/16 05:08:55;;;;;;;24.50;13.93;;;4.80;99.90;;;;;;6196861;23;20016;-80
2022/03/16 05:11:22;;;;;;;25.98;15.02;;;4.80;99.90;;;;;;6175352;23;20001;-80
2022/03/16 05:13:49;;;;;;;26.10;14.10;;;4.80;99.90;;;;;;6197555;23;20001;-79
2022/03/16 05:16:16;;;;;;;30.98;15.07;;;4.80;99.90;;;;;;6176526;23;20001;-79
2022/03/16 05:18:44;;;;;;;24.95;14.52;;;4.70;99.90;;;;;;6202583;23;20028;-79
2022/03/16 05:21:10;;;;;;;27.52;14.55;;;4.70;99.90;;;;;;6185649;23;20007;-80
2022/03/16 05:23:36;;;;;;;26.52;14.30;;;4.60;99.90;;;;;;6208849;23;19981;-80
2022/03/16 05:26:02;;;;;;;27.80;15.38;;;4.60;99.90;;;;;;6183315;23;19991;-80
2022/03/16 05:28:28;;;;;;;22.05;14.63;;;4.60;99.90;;;;;;6182754;23;20005;-79
2022/03/16 05:30:54;;;;;;;25.48;15.02;;;4.50;99.90;;;;;;6207468;23;20012;-79
2022/03/16 05:33:19;;;;;;;25.08;15.38;;;4.60;99.90;;;;;;6207359;23;20009;-79
2022/03/16 05:35:45;;;;;;;;;;;4.60;99.90;;;;;;6207624;23;20005;-80
2022/03/16 05:38:13;;;;;;;24.23;14.63;;;4.60;99.90;;;;;;6157984;23;19904;-78
2022/03/16 05:40:43;;;;;;;27.23;15.13;;;4.60;99.90;;;;;;6155690;23;20009;-76
2022/03/16 05:43:10;;;;;;;25.52;14.25;;;4.60;99.90;;;;;;6182395;23;20005;-78
2022/03/16 05:45:36;;;;;;;24.88;13.88;;;4.70;99.90;;;;;;6195646;23;20009;-79
2022/03/16 05:48:02;;;;;;;27.17;15.05;;;4.70;99.90;;;;;;6202162;23;20029;-80
2022/03/16 05:50:28;;;;;;;28.70;15.65;;;4.60;99.90;;;;;;6203726;23;20017;-80
2022/03/16 05:52:58;;;;;;;26.85;16.42;;;4.60;99.90;;;;;;6203350;23;19990;-80
2022/03/16 05:55:24;;;;;;;31.45;19.77;;;4.60;99.90;;;;;;6202906;23;20001;-79
2022/03/16 05:57:50;;;;;;;29.60;16.38;;;4.60;99.90;;;;;;6201473;23;20001;-79
2022/03/16 06:00:17;;;;;;;24.92;16.45;;;4.70;99.90;;;;;;6204657;23;19991;-79
2022/03/16 06:02:47;;;;;;;25.73;15.95;;;4.60;99.90;;;;;;6193846;23;20158;-79
2022/03/16 06:05:14;;;;;;;29.52;15.73;;;4.70;99.90;;;;;;6200965;23;20001;-79
2022/03/16 06:07:41;;;;;;;31.80;14.70;;;4.70;99.90;;;;;;6204039;23;19988;-79
2022/03/16 06:10:08;;;;;;;49.78;30.00;;;4.80;99.90;;;;;;6202949;23;20017;-79
2022/03/16 06:12:48;;;;;;;39.00;23.50;;;4.80;99.90;;;;;;6204597;23;20000;-80
2022/03/16 06:15:14;;;;;;;27.70;16.90;;;4.70;99.90;;;;;;6177111;23;20442;-79
2022/03/16 06:17:39;;;;;;;28.35;17.27;;;4.70;99.90;;;;;;6203541;23;20024;-80
2022/03/16 06:20:05;;;;;;;25.38;15.88;;;4.70;99.90;;;;;;6178053;23;20024;-79
2022/03/16 06:22:31;;;;;;;26.42;15.68;;;4.70;99.90;;;;;;6204144;23;20455;-79
2022/03/16 06:24:56;;;;;;;25.00;14.65;;;4.70;99.90;;;;;;6201574;23;19985;-79
2022/03/16 06:27:22;;;;;;;24.48;15.10;;;4.70;99.90;;;;;;6176329;23;20435;-79
2022/03/16 06:29:47;;;;;;;26.63;16.52;;;4.70;99.90;;;;;;6167994;23;20013;-80
2022/03/16 06:32:13;;;;;;;26.50;14.93;;;4.70;99.90;;;;;;6159897;23;20005;-77
2022/03/16 06:34:38;;;;;;;;;;;4.80;99.90;;;;;;6156246;23;20056;-78
2022/03/16 06:37:04;;;;;;;30.55;16.10;;;4.80;99.90;;;;;;6155689;23;20384;-78
2022/03/16 06:39:30;;;;;;;35.80;19.75;;;4.80;99.90;;;;;;6161068;23;20035;-79
2022/03/16 06:41:55;;;;;;;30.90;17.75;;;4.80;99.90;;;;;;6199780;23;20015;-79
2022/03/16 06:44:21;;;;;;;24.58;15.95;;;4.90;99.90;;;;;;6203987;23;20012;-80
2022/03/16 06:46:48;;;;;;;21.63;13.73;;;4.90;99.90;;;;;;6179111;23;20028;-79
2022/03/16 06:49:14;;;;;;;28.05;13.57;;;4.90;99.90;;;;;;6178017;23;20009;-79
2022/03/16 06:51:40;;;;;;;24.98;14.30;;;5.00;99.90;;;;;;6205522;23;19992;-80
2022/03/16 06:54:05;;;;;;;27.38;15.02;;;4.90;99.90;;;;;;6174301;23;20013;-79
2022/03/16 06:56:31;;;;;;;24.85;14.05;;;5.00;99.90;;;;;;6195888;23;20041;-79
2022/03/16 06:58:56;;;;;;;;;;;5.00;99.90;;;;;;6162918;23;20001;-78
2022/03/16 07:01:22;;;;;;;25.38;15.13;;;5.10;99.90;;;;;;6189019;23;19904;-78
2022/03/16 07:03:48;;;;;;;23.38;14.93;;;5.10;99.90;;;;;;6157841;23;20148;-78
2022/03/16 07:06:13;;;;;;;25.65;14.98;;;5.10;99.90;;;;;;6184358;23;20005;-79
2022/03/16 07:08:39;;;;;;;27.15;14.27;;;5.10;99.90;;;;;;6187118;23;20040;-78
2022/03/16 07:11:07;;;;;;;27.80;15.88;;;5.00;99.90;;;;;;6165992;23;20016;-79
2022/03/16 07:13:33;;;;;;;26.63;15.35;;;5.10;99.90;;;;;;6159871;23;20084;-79
2022/03/16 07:15:59;;;;;;;29.33;15.90;;;5.10;99.90;;;;;;6194488;23;20020;-79
2022/03/16 07:18:24;;;;;;;27.25;16.25;;;5.00;99.90;;;;;;6195539;23;20001;-79
2022/03/16 07:20:50;;;;;;;25.33;16.17;;;5.00;99.90;;;;;;6196051;23;20033;-79
2022/03/16 07:23:17;;;;;;;25.02;15.98;;;5.00;99.90;;;;;;6169467;23;20058;-79
2022/03/16 07:25:47;;;;;;;31.20;18.73;;;5.00;99.90;;;;;;6195116;23;20012;-79
2022/03/16 07:28:14;;;;;;;33.03;16.88;;;5.10;99.90;;;;;;6168867;23;20036;-79
2022/03/16 07:30:41;;;;;;;29.33;16.45;;;5.10;99.90;;;;;;6169634;23;20036;-79
2022/03/16 07:33:08;;;;;;;31.88;18.58;;;5.20;99.90;;;;;;6196554;23;20063;-78
2022/03/16 07:35:35;;;;;;;29.63;16.50;;;5.00;99.90;;;;;;6171403;23;20005;-79
2022/03/16 07:38:02;;;;;;;35.60;17.58;;;5.00;99.90;;;;;;6195710;23;20518;-81
2022/03/16 07:40:30;;;;;;;33.70;16.83;;;5.10;99.90;;;;;;6197834;23;20035;-79
2022/03/16 07:42:56;;;;;;;30.17;16.92;;;5.10;99.90;;;;;;6195572;23;20005;-79
2022/03/16 07:45:22;;;;;;;25.08;16.15;;;5.20;99.90;;;;;;6168867;23;20036;-79
2022/03/16 07:47:48;;;;;;;;;;;5.10;99.90;;;;;;6169972;23;20439;-79
2022/03/16 07:50:16;;;;;;;28.13;17.60;;;5.10;99.90;;;;;;6169100;23;19919;-79
2022/03/16 07:52:42;;;;;;;26.90;16.77;;;5.00;99.90;;;;;;6195444;23;20024;-79
2022/03/16 07:55:09;;;;;;;31.90;18.70;;;5.30;99.90;;;;;;6195436;23;20001;-79
2022/03/16 07:57:36;;;;;;;26.38;16.80;;;5.20;99.90;;;;;;6171400;23;20005;-80
2022/03/16 08:00:04;;;;;;;33.15;20.35;;;5.30;99.90;;;;;;6182998;23;20028;-79
2022/03/16 08:02:29;;;;;;;32.15;17.63;;;5.20;99.90;;;;;;6205902;23;20009;-79
2022/03/16 08:05:00;;;;;;;28.30;17.83;;;5.30;99.90;;;;;;6198777;23;19997;-79
2022/03/16 08:07:29;;;;;;;33.58;20.45;;;5.30;99.90;;;;;;6198149;23;20028;-78
2022/03/16 08:09:56;;;;;;;40.60;22.83;;;5.30;99.90;;;;;;6198955;23;20363;-79
2022/03/16 08:12:23;;;;;;;35.38;22.95;;;5.40;99.90;;;;;;6172152;23;20005;-79
2022/03/16 08:14:48;;;;;;;32.53;19.95;;;5.40;99.90;;;;;;6197815;23;20005;-79
2022/03/16 08:17:14;;;;;;;24.92;15.93;;;5.50;99.90;;;;;;6198987;23;20024;-80
2022/03/16 08:19:40;;;;;;;33.80;20.27;;;5.70;99.90;;;;;;6198543;23;20033;-79
2022/03/16 08:22:05;;;;;;;;;;;5.80;99.90;;;;;;6197921;23;20020;-78
2022/03/16 08:24:31;;;;;;;26.27;16.38;;;5.80;99.90;;;;;;6175774;23;19908;-79
2022/03/16 08:26:57;;;;;;;;;;;5.80;99.90;;;;;;6173991;23;20001;-79
2022/03/16 08:29:22;;;;;;;29.83;19.15;;;5.80;99.90;;;;;;6171904;23;19908;-79
2022/03/16 08:31:48;;;;;;;33.20;20.95;;;5.80;99.90;;;;;;6172154;23;20016;-79
2022/03/16 08:34:14;;;;;;;29.52;18.48;;;5.70;99.90;;;;;;6199328;23;20001;-79
2022/03/16 08:36:39;;;;;;;25.40;16.65;;;5.90;99.90;;;;;;6173758;23;20009;-80
2022/03/16 08:39:06;;;;;;;24.65;17.02;;;5.90;99.90;;;;;;6174266;23;20009;-79
2022/03/16 08:41:33;;;;;;;24.02;16.42;;;5.90;99.90;;;;;;6173985;23;20064;-79
2022/03/16 08:43:59;;;;;;;26.75;16.67;;;6.20;99.90;;;;;;6174623;23;20032;-79
2022/03/16 08:46:25;;;;;;;30.80;17.13;;;6.40;99.90;;;;;;6175253;23;20005;-79
2022/03/16 08:48:50;;;;;;;29.20;19.05;;;6.50;99.90;;;;;;6177158;23;20405;-78
2022/03/16 08:51:16;;;;;;;;;;;6.60;99.90;;;;;;6203277;23;20001;-79
2022/03/16 08:53:42;;;;;;;23.48;15.32;;;6.70;99.90;;;;;;6175587;23;19900;-80
2022/03/16 08:56:09;;;;;;;;;;;6.70;99.90;;;;;;6177075;23;20099;-79
2022/03/16 08:58:35;;;;;;;;;;;6.80;99.90;;;;;;6176711;23;19901;-79
2022/03/16 09:01:00;;;;;;;24.55;15.60;;;6.90;99.90;;;;;;6202882;23;19900;-79
2022/03/16 09:03:26;;;;;;;23.92;15.48;;;6.80;99.90;;;;;;6176753;23;20000;-79
2022/03/16 09:05:52;;;;;;;23.35;15.05;;;6.90;99.90;;;;;;6202792;23;19989;-79
2022/03/16 09:08:18;;;;;;;;;;;7.00;99.90;;;;;;6201326;23;19997;-80
2022/03/16 09:10:45;;;;;;;23.75;15.48;;;7.10;99.90;;;;;;6200911;23;19900;-78
2022/03/16 09:13:10;;;;;;;23.98;15.43;;;7.20;99.90;;;;;;6203191;23;20036;-79
2022/03/16 09:15:36;;;;;;;24.40;16.33;;;7.20;99.90;;;;;;6202631;23;19997;-79
2022/03/16 09:18:02;;;;;;;25.27;14.30;;;7.20;99.90;;;;;;6202609;23;20068;-80
2022/03/16 09:20:28;;;;;;;;;;;7.30;99.90;;;;;;6176212;23;20005;-80
2022/03/16 09:22:54;;;;;;;20.52;13.27;;;7.40;99.90;;;;;;6205088;23;19927;-79
2022/03/16 09:25:24;;;;;;;20.77;13.75;;;7.60;99.90;;;;;;6172318;23;20012;-76
2022/03/16 09:27:50;;;;;;;20.10;13.45;;;7.90;99.90;;;;;;6183092;23;20141;-77
2022/03/16 09:30:15;;;;;;;;;;;8.00;99.90;;;;;;6199927;23;20024;-80
2022/03/16 09:32:41;;;;;;;30.67;15.30;;;8.10;99.90;;;;;;6185807;23;19932;-80
2022/03/16 09:35:07;;;;;;;25.90;17.45;;;8.20;99.90;;;;;;6211568;23;20028;-80
2022/03/16 09:37:33;;;;;;;28.45;16.90;;;8.20;99.90;;;;;;6209684;23;19990;-80
2022/03/16 09:39:59;;;;;;;27.60;19.23;;;8.10;99.90;;;;;;6212029;23;19999;-80
2022/03/16 09:42:29;;;;;;;27.75;18.42;;;8.00;99.90;;;;;;6210453;23;20005;-79
2022/03/16 09:44:55;;;;;;;28.23;17.27;;;7.90;99.90;;;;;;6210506;23;20024;-80
2022/03/16 09:47:22;;;;;;;;;;;7.90;99.90;;;;;;6184911;23;20013;-80
2022/03/16 09:49:48;;;;;;;;;;;7.80;99.90;;;;;;6209424;23;19908;-79
2022/03/16 09:52:14;;;;;;;27.50;15.40;;;7.90;99.90;;;;;;6213471;23;19890;-79
2022/03/16 09:54:41;;;;;;;26.73;16.40;;;7.90;99.90;;;;;;6213022;23;19996;-80
2022/03/16 09:57:06;;;;;;;27.20;18.00;;;7.80;99.90;;;;;;6213262;23;19992;-79
2022/03/16 09:59:32;;;;;;;25.13;16.25;;;7.70;99.90;;;;;;6187776;23;20009;-80
2022/03/16 10:35:04;;;;;;;36.90;23.00;;;6.80;99.90;;;;;;6190710;23;20354;-79
2022/03/16 10:37:34;;;;;;;28.63;17.63;;;6.80;99.90;;;;;;6214644;23;20013;-80
2022/03/16 10:40:00;;;;;;;25.20;18.15;;;6.80;99.90;;;;;;6236614;23;19988;-81
2022/03/16 10:48:26;;;;;;;28.35;17.70;;;7.30;99.90;;;;;;6241732;22;20014;-80
2022/03/16 10:50:58;;;;;;;23.85;16.35;;;7.20;99.90;;;;;;6214455;23;20056;-80
2022/03/16 10:53:29;;;;;;;27.02;16.63;;;7.10;99.90;;;;;;6214551;23;20004;-79
2022/03/16 10:55:57;;;;;;;26.17;17.70;;;7.10;99.90;;;;;;6238504;23;20005;-79
2022/03/16 10:58:27;;;;;;;57.05;38.67;;;7.10;99.90;;;;;;6240310;23;19985;-80
2022/03/16 11:00:56;;;;;;;48.17;34.50;;;7.00;99.90;;;;;;6240154;23;20005;-79
2022/03/16 11:03:26;;;;;;;31.55;23.13;;;7.00;99.90;;;;;;6239855;23;20429;-80
2022/03/16 11:05:52;;;;;;;39.40;24.70;;;7.00;99.90;;;;;;6215435;23;19993;-80
2022/03/16 11:08:20;;;;;;;57.10;38.95;;;7.00;99.90;;;;;;6215425;23;19997;-80
2022/03/16 11:10:46;;;;;;;39.00;25.60;;;6.90;99.90;;;;;;6214688;23;20001;-80
2022/03/16 11:13:32;;;;;;;39.40;26.35;;;6.90;99.90;;;;;;6241880;23;20019;-80
2022/03/16 11:16:00;;;;;;;35.40;24.75;;;6.80;99.90;;;;;;6213724;23;20088;-80
2022/03/16 11:18:27;;;;;;;38.88;25.27;;;6.50;99.90;;;;;;6212831;23;20035;-78
2022/03/16 11:21:07;;;;;;;43.05;27.88;;;6.40;99.90;;;;;;6214416;23;20391;-80
2022/03/16 11:26:37;;;;;;;19.30;15.27;;;6.50;99.90;;;;;;6240227;23;20075;-80
2022/03/16 11:29:17;;;;;;;19.40;14.43;;;6.80;99.90;;;;;;6213802;23;20013;-79
2022/03/16 11:31:44;;;;;;;20.30;15.63;;;6.90;99.90;;;;;;6217381;23;20091;-80
2022/03/16 11:34:11;;;;;;;20.48;14.65;;;7.00;99.90;;;;;;6243614;22;20000;-80
2022/03/16 11:36:41;;;;;;;18.30;13.80;;;6.90;99.90;;;;;;6242857;22;20023;-79
2022/03/16 11:39:16;;;;;;;18.45;14.25;;;7.10;99.90;;;;;;6242708;23;20027;-79
2022/03/16 11:41:49;;;;;;;17.90;13.95;;;7.00;99.90;;;;;;6243721;23;20020;-80
2022/03/16 11:44:26;;;;;;;19.88;15.25;;;6.90;99.90;;;;;;6243557;23;20057;-80
2022/03/16 11:46:52;;;;;;;;;;;6.80;99.90;;;;;;6243791;23;20027;-80
2022/03/16 11:49:29;;;;;;;20.00;15.30;;;6.50;99.90;;;;;;6243598;22;19912;-80
2022/03/16 11:52:00;;;;;;;25.02;17.10;;;6.50;99.90;;;;;;6244283;23;20469;-80
2022/03/16 11:54:46;;;;;;;24.85;17.25;;;6.40;99.90;;;;;;6217077;23;20015;-81
2022/03/16 11:57:13;;;;;;;24.30;17.30;;;6.40;99.90;;;;;;6218155;23;19992;-79
2022/03/16 11:59:44;;;;;;;25.98;19.75;;;6.20;99.90;;;;;;6217408;23;20230;-79
2022/03/16 12:02:27;;;;;;;27.88;20.17;;;6.20;99.90;;;;;;6243591;23;19989;-79
2022/03/16 12:05:01;;;;;;;31.65;22.45;;;6.20;99.90;;;;;;6243301;23;19993;-80
2022/03/16 12:07:37;;;;;;;24.95;18.17;;;6.30;99.90;;;;;;6243249;23;20000;-81
2022/03/16 12:10:15;;;;;;;24.35;17.23;;;6.40;99.90;;;;;;6217753;23;20064;-80
2022/03/16 12:12:54;;;;;;;24.48;18.23;;;6.60;99.90;;;;;;6217101;23;20019;-80
2022/03/16 12:15:52;;;;;;;29.23;21.13;;;6.60;99.90;;;;;;6243248;23;20001;-81
2022/03/16 12:18:19;;;;;;;34.85;23.45;;;6.50;99.90;;;;;;6226175;23;20076;-81
2022/03/16 12:20:49;;;;;;;34.33;23.58;;;6.40;99.90;;;;;;6217786;23;20031;-80
2022/03/16 12:23:18;;;;;;;31.98;21.50;;;6.40;99.90;;;;;;6217134;23;20009;-80
2022/03/16 12:25:46;;;;;;;32.38;23.15;;;6.10;99.90;;;;;;6244518;23;19996;-81
2022/03/16 12:31:17;;;;;;;29.95;22.10;;;5.90;99.90;;;;;;6243282;22;20066;-80
2022/03/16 12:33:45;;;;;;;32.17;21.27;;;5.80;99.90;;;;;;6217235;23;20018;-80
2022/03/16 12:36:12;;;;;;;31.08;22.17;;;6.00;99.90;;;;;;6243605;23;20024;-80
2022/03/16 12:38:42;;;;;;;27.38;20.00;;;6.10;99.90;;;;;;6243522;23;20012;-81
2022/03/16 12:43:56;;;;;;;22.15;16.60;;;5.80;99.90;;;;;;6243824;22;20023;-80
2022/03/16 12:46:25;;;;;;;28.88;19.73;;;5.90;99.90;;;;;;6217738;23;20035;-81
2022/03/16 12:49:01;;;;;;;24.38;18.02;;;5.80;99.90;;;;;;6243075;23;20036;-81
2022/03/16 12:51:35;;;;;;;20.38;14.55;;;5.80;99.90;;;;;;6243383;23;20004;-80
2022/03/16 12:54:02;;;;;;;18.20;13.98;;;5.90;99.90;;;;;;6242830;23;20004;-81
2022/03/16 12:56:28;;;;;;;23.75;14.85;;;5.90;99.90;;;;;;6217539;23;20004;-80
2022/03/16 12:58:56;;;;;;;;;;;5.90;99.90;;;;;;6218080;23;20048;-81
2022/03/16 13:01:23;;;;;;;35.38;23.00;;;6.00;99.90;;;;;;6217255;23;19907;-81
2022/03/16 13:04:04;;;;;;;23.27;16.05;;;6.00;99.90;;;;;;6217486;23;20055;-81
2022/03/16 13:06:33;;;;;;;21.85;14.48;;;6.10;99.90;;;;;;6217533;23;19992;-81
2022/03/16 13:09:03;;;;;;;18.50;12.82;;;6.20;99.90;;;;;;6217275;23;20023;-81
2022/03/16 13:11:30;;;;;;;21.98;13.20;;;6.20;99.90;;;;;;6243286;23;19987;-80
2022/03/16 13:14:05;;;;;;;36.42;21.63;;;6.30;99.90;;;;;;6243115;23;19992;-80
2022/03/16 13:16:40;;;;;;;16.77;11.70;;;6.20;99.90;;;;;;6243700;23;20027;-81
2022/03/16 13:19:24;;;;;;;18.42;13.52;;;6.30;99.90;;;;;;6216965;23;20009;-79
2022/03/16 13:22:06;;;;;;;17.95;12.20;;;6.30;99.90;;;;;;6243386;23;20000;-80
2022/03/16 13:24:39;;;;;;;17.67;12.05;;;6.40;99.90;;;;;;6217195;23;20001;-80
2022/03/16 13:27:08;;;;;;;17.08;12.10;;;6.40;99.90;;;;;;6243332;23;20000;-79
2022/03/16 13:29:37;;;;;;;20.52;14.43;;;6.30;99.90;;;;;;6242995;22;20013;-80
2022/03/16 13:32:05;;;;;;;13.75;11.32;;;6.40;99.90;;;;;;6243373;23;20025;-80
2022/03/16 13:34:37;;;;;;;25.13;17.95;;;6.40;99.90;;;;;;6217567;23;19997;-79
2022/03/16 13:37:21;;;;;;;21.20;15.00;;;6.40;99.90;;;;;;6243802;22;20005;-80
2022/03/16 13:40:01;;;;;;;20.15;14.35;;;6.50;99.90;;;;;;6244543;23;20023;-81
2022/03/16 13:42:30;;;;;;;19.55;14.23;;;6.60;99.90;;;;;;6217937;23;20020;-80
2022/03/16 13:45:23;;;;;;;17.38;12.32;;;6.40;99.90;;;;;;6244158;22;20012;-80
2022/03/16 13:48:16;;;;;;;60.65;28.92;;;6.40;99.90;;;;;;6243595;23;19985;-80
2022/03/16 13:50:55;;;;;;;21.02;14.50;;;6.20;99.90;;;;;;6243916;22;19996;-80
2022/03/16 13:53:47;;;;;;;20.55;15.38;;;6.10;99.90;;;;;;6217722;22;19999;-78
2022/03/16 13:56:23;;;;;;;26.30;17.90;;;5.90;99.90;;;;;;6241462;23;20027;-80
2022/03/16 13:58:53;;;;;;;26.25;17.58;;;5.90;99.90;;;;;;6242733;23;20047;-79
2022/03/16 14:01:24;;;;;;;22.00;16.13;;;5.80;99.90;;;;;;6242354;23;19992;-80
2022/03/16 14:04:04;;;;;;;23.30;15.88;;;5.70;99.90;;;;;;6242498;22;19995;-79
2022/03/16 14:06:41;;;;;;;30.02;21.27;;;5.70;99.90;;;;;;6216684;23;20015;-79
2022/03/16 14:09:21;;;;;;;25.67;17.63;;;5.80;99.90;;;;;;6242781;23;20031;-81
2022/03/16 14:11:47;;;;;;;25.08;17.55;;;5.80;99.90;;;;;;6242677;23;19992;-80
2022/03/16 14:14:32;;;;;;;26.05;18.52;;;5.80;99.90;;;;;;6216426;23;20466;-80
2022/03/16 14:16:58;;;;;;;28.45;19.60;;;5.80;99.90;;;;;;6215705;23;20008;-79
2022/03/16 14:19:37;;;;;;;27.85;18.92;;;5.70;99.90;;;;;;6216746;22;20005;-80
2022/03/16 14:22:04;;;;;;;27.38;18.17;;;5.90;99.90;;;;;;6216990;23;19992;-80
2022/03/16 14:24:31;;;;;;;31.08;17.48;;;5.90;99.90;;;;;;6216421;23;19992;-81
2022/03/16 14:27:15;;;;;;;24.05;16.75;;;6.00;99.90;;;;;;6242210;23;19989;-81
2022/03/16 14:29:43;;;;;;;24.13;15.95;;;5.80;99.90;;;;;;6242423;23;20044;-81
2022/03/16 14:32:09;;;;;;;21.35;15.57;;;5.70;99.90;;;;;;6242500;23;20028;-80
2022/03/16 14:34:34;;;;;;;33.70;19.63;;;5.80;99.90;;;;;;6215798;23;19996;-80
2022/03/16 14:37:00;;;;;;;32.05;20.92;;;5.60;99.90;;;;;;6241410;23;20051;-81
2022/03/16 14:39:27;;;;;;;;;;;5.60;99.90;;;;;;6216082;23;20001;-80
2022/03/16 14:41:54;;;;;;;27.55;18.48;;;5.70;99.90;;;;;;6241856;23;19904;-80
2022/03/16 14:44:20;;;;;;;27.20;16.13;;;5.70;99.90;;;;;;6215148;23;19991;-80
2022/03/16 14:46:46;;;;;;;19.45;13.30;;;5.70;99.90;;;;;;6240495;23;20009;-80